createdAt,value
2023-05-05T00:02:18.673Z,7.96
2023-05-05T00:04:46.879Z,7.96
2023-05-05T00:07:15.096Z,7.95
2023-05-05T00:09:43.266Z,7.93
2023-05-05T00:12:11.455Z,7.88
2023-05-05T00:14:39.562Z,7.81
2023-05-05T00:17:07.816Z,7.77
2023-05-05T00:19:36.008Z,7.75
2023-05-05T00:22:04.080Z,7.72
2023-05-05T00:24:32.287Z,7.67
2023-05-05T00:27:02.115Z,7.61
2023-05-05T00:29:30.248Z,7.55
2023-05-05T00:31:58.559Z,7.52
2023-05-05T00:34:26.629Z,7.55
2023-05-05T00:36:54.896Z,7.57
2023-05-05T00:39:23.550Z,7.54
2023-05-05T00:41:51.633Z,7.57
2023-05-05T00:44:34.829Z,7.62
2023-05-05T00:47:03.668Z,7.71
2023-05-05T00:49:32.647Z,7.75
2023-05-05T00:52:01.038Z,7.77
2023-05-05T00:54:29.300Z,7.76
2023-05-05T00:56:57.455Z,7.75
2023-05-05T00:59:25.949Z,7.76
2023-05-05T01:01:54.054Z,7.77
2023-05-05T01:04:22.240Z,7.79
2023-05-05T01:07:09.109Z,7.82
2023-05-05T01:09:43.255Z,7.83
2023-05-05T01:12:30.264Z,7.79
2023-05-05T01:15:07.646Z,7.73
2023-05-05T01:17:42.103Z,7.65
2023-05-05T01:20:21.769Z,7.53
2023-05-05T01:23:01.542Z,7.44
2023-05-05T01:25:47.983Z,7.33
2023-05-05T01:28:28.440Z,7.25
2023-05-05T01:31:00.645Z,7.20
2023-05-05T01:33:32.020Z,7.20
2023-05-05T01:36:04.273Z,7.20
2023-05-05T01:38:38.322Z,7.25
2023-05-05T01:41:15.589Z,7.33
2023-05-05T01:43:46.233Z,7.35
2023-05-05T01:46:15.373Z,7.37
2023-05-05T01:48:44.327Z,7.41
2023-05-05T01:51:12.901Z,7.42
2023-05-05T01:53:42.320Z,7.43
2023-05-05T01:56:11.804Z,7.43
2023-05-05T01:58:41.836Z,7.37
2023-05-05T02:01:10.434Z,7.33
2023-05-05T02:03:39.741Z,7.32
2023-05-05T02:06:08.614Z,7.32
2023-05-05T02:08:37.557Z,7.32
2023-05-05T02:11:05.797Z,7.29
2023-05-05T02:13:33.876Z,7.20
2023-05-05T02:16:03.136Z,7.11
2023-05-05T02:18:35.695Z,7.08
2023-05-05T02:21:03.930Z,7.05
2023-05-05T02:23:32.005Z,6.94
2023-05-05T02:26:03.771Z,6.97
2023-05-05T02:28:46.422Z,7.01
2023-05-05T02:31:16.528Z,7.01
2023-05-05T02:33:46.941Z,7.03
2023-05-05T02:36:18.034Z,6.94
2023-05-05T02:38:54.797Z,6.94
2023-05-05T02:41:25.575Z,6.89
2023-05-05T02:43:55.003Z,6.82
2023-05-05T02:46:23.490Z,6.78
2023-05-05T02:48:51.687Z,6.70
2023-05-05T02:51:19.848Z,6.61
2023-05-05T02:53:48.026Z,6.51
2023-05-05T02:56:26.964Z,6.40
2023-05-05T02:59:00.708Z,6.26
2023-05-05T03:01:28.756Z,6.17
2023-05-05T03:04:05.552Z,6.11
2023-05-05T03:06:39.503Z,6.06
2023-05-05T03:09:08.170Z,5.94
2023-05-05T03:11:40.445Z,5.79
2023-05-05T03:14:18.528Z,5.66
2023-05-05T03:16:47.903Z,5.51
2023-05-05T03:19:18.585Z,5.40
2023-05-05T03:21:47.876Z,5.29
2023-05-05T03:24:19.901Z,5.14
2023-05-05T03:26:57.822Z,5.01
2023-05-05T03:29:29.652Z,4.93
2023-05-05T03:31:58.918Z,4.84
2023-05-05T03:34:27.238Z,4.84
2023-05-05T03:36:55.647Z,4.84
2023-05-05T03:39:23.962Z,4.83
2023-05-05T03:41:52.090Z,4.80
2023-05-05T03:44:20.612Z,4.80
2023-05-05T03:46:48.944Z,4.79
2023-05-05T03:49:17.279Z,4.79
2023-05-05T03:51:47.428Z,4.78
2023-05-05T03:54:16.778Z,4.73
2023-05-05T03:56:44.830Z,4.72
2023-05-05T03:59:12.963Z,4.74
2023-05-05T04:01:41.690Z,4.80
2023-05-05T04:04:09.989Z,4.88
2023-05-05T04:06:38.128Z,5.01
2023-05-05T04:09:06.639Z,5.14
2023-05-05T04:11:34.756Z,5.26
2023-05-05T04:14:03.209Z,5.32
2023-05-05T04:16:31.459Z,5.37
2023-05-05T04:19:00.244Z,5.45
2023-05-05T04:21:28.611Z,5.50
2023-05-05T04:23:57.872Z,5.57
2023-05-05T04:26:27.324Z,5.62
2023-05-05T04:28:55.906Z,5.69
2023-05-05T04:31:24.353Z,5.76
2023-05-05T04:33:52.669Z,5.85
2023-05-05T04:36:21.026Z,5.95
2023-05-05T04:38:49.154Z,6.05
2023-05-05T04:41:17.307Z,6.13
2023-05-05T04:43:45.710Z,6.25
2023-05-05T04:46:13.801Z,6.37
2023-05-05T04:48:41.972Z,6.58
2023-05-05T04:51:10.277Z,6.76
2023-05-05T04:53:38.515Z,6.86
2023-05-05T04:56:06.631Z,6.95
2023-05-05T04:58:34.706Z,7.05
2023-05-05T05:01:03.520Z,7.10
2023-05-05T05:03:32.350Z,7.23
2023-05-05T05:06:00.531Z,7.44
2023-05-05T05:08:28.687Z,7.70
2023-05-05T05:10:56.659Z,7.94
2023-05-05T05:13:24.844Z,8.32
2023-05-05T05:15:52.924Z,8.61
2023-05-05T05:18:20.974Z,8.77
2023-05-05T05:20:49.579Z,8.88
2023-05-05T05:23:17.685Z,9.09
2023-05-05T05:25:46.214Z,9.28
2023-05-05T05:28:14.815Z,9.31
2023-05-05T05:30:47.556Z,9.63
2023-05-05T05:33:15.956Z,9.98
2023-05-05T05:35:44.460Z,10.12
2023-05-05T05:38:12.782Z,9.94
2023-05-05T05:40:40.942Z,9.98
2023-05-05T05:43:09.188Z,10.09
2023-05-05T05:45:37.820Z,10.27
2023-05-05T05:48:06.912Z,10.43
2023-05-05T05:50:36.027Z,10.60
2023-05-05T05:53:04.162Z,10.67
2023-05-05T05:55:32.417Z,10.70
2023-05-05T05:58:00.826Z,10.79
2023-05-05T06:00:29.268Z,10.86
2023-05-05T06:03:01.451Z,10.82
2023-05-05T06:05:31.900Z,10.90
2023-05-05T06:08:00.163Z,11.06
2023-05-05T06:10:28.805Z,11.17
2023-05-05T06:13:06.303Z,11.21
2023-05-05T06:15:34.641Z,11.24
2023-05-05T06:18:03.236Z,11.33
2023-05-05T06:20:32.028Z,11.28
2023-05-05T06:23:00.561Z,11.21
2023-05-05T06:25:29.285Z,11.31
2023-05-05T06:27:57.410Z,11.59
2023-05-05T06:30:26.338Z,11.86
2023-05-05T06:32:54.455Z,12.17
2023-05-05T06:35:22.675Z,12.47
2023-05-05T06:37:50.750Z,12.72
2023-05-05T06:40:18.880Z,12.77
2023-05-05T06:42:46.916Z,12.88
2023-05-05T06:45:18.407Z,13.04
2023-05-05T06:47:46.489Z,13.25
2023-05-05T06:50:14.797Z,13.45
2023-05-05T06:52:42.807Z,13.25
2023-05-05T06:55:10.849Z,13.53
2023-05-05T06:57:38.938Z,13.78
2023-05-05T07:00:11.276Z,14.10
2023-05-05T07:02:40.193Z,14.23
2023-05-05T07:05:08.504Z,14.54
2023-05-05T07:07:37.196Z,14.95
2023-05-05T07:10:05.510Z,15.11
2023-05-05T07:12:33.719Z,14.98
2023-05-05T07:15:09.368Z,14.98
2023-05-05T07:17:43.910Z,14.73
2023-05-05T07:20:12.211Z,14.82
2023-05-05T07:22:40.241Z,14.59
2023-05-05T07:25:08.574Z,14.75
2023-05-05T07:27:37.397Z,15.05
2023-05-05T07:30:10.909Z,14.65
2023-05-05T07:32:41.431Z,14.45
2023-05-05T07:35:09.652Z,14.29
2023-05-05T07:37:37.752Z,14.32
2023-05-05T07:40:06.414Z,14.36
2023-05-05T07:42:34.648Z,14.40
2023-05-05T07:45:02.794Z,14.36
2023-05-05T07:47:30.929Z,14.38
2023-05-05T07:49:59.140Z,14.45
2023-05-05T07:52:43.619Z,14.52
2023-05-05T07:55:14.585Z,14.52
2023-05-05T07:57:42.748Z,14.56
2023-05-05T08:00:11.613Z,14.71
2023-05-05T08:02:42.693Z,15.02
2023-05-05T08:05:11.471Z,15.43
2023-05-05T08:07:41.673Z,15.88
2023-05-05T08:10:13.293Z,15.84
2023-05-05T08:12:41.558Z,16.03
2023-05-05T08:15:10.047Z,16.22
2023-05-05T08:17:46.277Z,16.35
2023-05-05T08:20:14.730Z,16.33
2023-05-05T08:22:43.107Z,16.19
2023-05-05T08:25:11.419Z,16.32
2023-05-05T08:27:40.344Z,16.42
2023-05-05T08:30:09.178Z,16.57
2023-05-05T08:32:38.437Z,16.74
2023-05-05T08:35:07.455Z,16.74
2023-05-05T08:37:35.963Z,16.62
2023-05-05T08:40:04.721Z,16.58
2023-05-05T08:42:38.628Z,16.61
2023-05-05T08:45:08.679Z,16.51
2023-05-05T08:47:37.521Z,16.90
2023-05-05T08:50:06.276Z,17.08
2023-05-05T08:52:42.228Z,17.31
2023-05-05T08:55:15.526Z,17.50
2023-05-05T08:57:51.713Z,17.50
2023-05-05T09:00:20.588Z,17.32
2023-05-05T09:02:49.161Z,17.17
2023-05-05T09:05:18.008Z,16.94
2023-05-05T09:07:47.432Z,16.72
2023-05-05T09:10:15.750Z,16.57
2023-05-05T09:12:43.961Z,16.35
2023-05-05T09:15:13.140Z,15.96
2023-05-05T09:17:41.844Z,15.53
2023-05-05T09:20:10.961Z,15.48
2023-05-05T09:22:46.309Z,15.65
2023-05-05T09:25:15.278Z,15.84
2023-05-05T09:27:47.387Z,15.83
2023-05-05T09:30:16.813Z,15.86
2023-05-05T09:32:46.222Z,15.89
2023-05-05T09:35:14.921Z,15.74
2023-05-05T09:37:43.247Z,15.79
2023-05-05T09:40:13.372Z,15.61
2023-05-05T09:42:41.580Z,15.48
2023-05-05T09:45:15.524Z,15.38
2023-05-05T09:47:43.612Z,15.26
2023-05-05T09:50:19.142Z,15.27
2023-05-05T09:52:56.212Z,15.23
2023-05-05T09:55:25.168Z,15.16
2023-05-05T09:57:53.392Z,15.17
2023-05-05T10:00:22.079Z,15.20
2023-05-05T10:02:50.278Z,15.25
2023-05-05T10:05:18.849Z,15.07
2023-05-05T10:07:48.003Z,15.23
2023-05-05T10:10:17.664Z,15.23
2023-05-05T10:12:49.776Z,15.26
2023-05-05T10:15:18.296Z,15.07
2023-05-05T10:18:02.152Z,15.12
2023-05-05T10:20:36.518Z,15.00
2023-05-05T10:23:06.860Z,15.05
2023-05-05T10:25:39.316Z,15.07
2023-05-05T10:28:09.947Z,15.17
2023-05-05T10:30:42.213Z,15.19
2023-05-05T10:33:31.009Z,15.01
2023-05-05T10:36:02.617Z,15.20
2023-05-05T10:38:31.754Z,15.32
2023-05-05T10:41:01.629Z,15.41
2023-05-05T10:43:30.816Z,15.48
2023-05-05T10:45:59.331Z,15.48
2023-05-05T10:48:33.624Z,15.50
2023-05-05T10:51:10.634Z,15.41
2023-05-05T10:53:44.557Z,15.27
2023-05-05T10:56:12.676Z,15.38
2023-05-05T10:58:55.387Z,15.44
2023-05-05T11:01:34.133Z,15.44
2023-05-05T11:04:21.944Z,15.46
2023-05-05T11:07:09.639Z,15.41
2023-05-05T11:09:54.856Z,15.33
2023-05-05T11:12:23.055Z,15.31
2023-05-05T11:15:09.605Z,15.42
2023-05-05T11:17:47.268Z,15.39
2023-05-05T11:20:15.305Z,15.43
2023-05-05T11:23:02.193Z,15.35
2023-05-05T11:25:36.698Z,15.46
2023-05-05T11:28:05.232Z,15.42
2023-05-05T11:30:33.463Z,15.49
2023-05-05T11:33:20.142Z,15.54
2023-05-05T11:35:57.372Z,15.77
2023-05-05T11:38:41.480Z,16.14
2023-05-05T11:41:18.401Z,16.68
2023-05-05T11:43:46.643Z,16.79
2023-05-05T11:46:15.329Z,16.78
2023-05-05T11:48:47.129Z,17.15
2023-05-05T11:51:16.427Z,17.45
2023-05-05T11:53:48.326Z,17.42
2023-05-05T11:56:21.846Z,17.21
2023-05-05T11:59:04.889Z,17.35
2023-05-05T12:01:33.156Z,17.35
2023-05-05T12:04:01.725Z,17.32
2023-05-05T12:06:32.487Z,17.28
2023-05-05T12:09:01.288Z,17.20
2023-05-05T12:11:29.334Z,17.01
2023-05-05T12:14:11.912Z,16.76
2023-05-05T12:16:40.152Z,16.45
2023-05-05T12:19:08.713Z,16.24
2023-05-05T12:21:36.762Z,16.22
2023-05-05T12:24:05.012Z,16.19
2023-05-05T12:26:33.109Z,16.16
2023-05-05T12:29:01.383Z,16.15
2023-05-05T12:31:39.540Z,16.17
2023-05-05T12:34:08.959Z,16.33
2023-05-05T12:36:37.616Z,16.53
2023-05-05T12:39:05.763Z,16.73
2023-05-05T12:41:34.408Z,17.12
2023-05-05T12:44:05.302Z,17.24
2023-05-05T12:46:44.591Z,17.42
2023-05-05T12:49:12.658Z,17.71
2023-05-05T12:51:52.634Z,17.86
2023-05-05T12:54:20.709Z,17.97
2023-05-05T12:56:48.703Z,18.05
2023-05-05T12:59:22.833Z,17.82
2023-05-05T13:01:52.102Z,17.71
2023-05-05T13:04:21.510Z,17.71
2023-05-05T13:06:51.396Z,17.23
2023-05-05T13:09:27.897Z,17.54
2023-05-05T13:11:56.502Z,17.59
2023-05-05T13:14:24.566Z,17.56
2023-05-05T13:16:52.967Z,17.52
2023-05-05T13:19:21.073Z,17.31
2023-05-05T13:21:49.210Z,17.11
2023-05-05T13:26:48.915Z,16.58
2023-05-05T13:29:17.194Z,16.47
2023-05-05T13:31:45.958Z,16.31
2023-05-05T13:34:14.281Z,16.20
2023-05-05T13:36:42.391Z,16.04
2023-05-05T13:39:10.588Z,15.83
2023-05-05T13:41:38.652Z,15.64
2023-05-05T13:44:06.714Z,15.78
2023-05-05T13:46:34.852Z,16.13
2023-05-05T13:49:02.962Z,16.40
2023-05-05T13:51:31.179Z,16.53
2023-05-05T13:53:59.231Z,16.44
2023-05-05T13:56:27.939Z,16.27
2023-05-05T13:58:56.053Z,16.08
2023-05-05T14:01:24.152Z,16.18
2023-05-05T14:03:52.261Z,16.28
2023-05-05T14:06:20.365Z,16.45
2023-05-05T14:08:48.596Z,16.75
2023-05-05T14:11:18.261Z,17.03
2023-05-05T14:13:46.707Z,17.25
2023-05-05T14:16:14.928Z,17.46
2023-05-05T14:18:43.251Z,17.33
2023-05-05T14:21:11.400Z,17.13
2023-05-05T14:23:39.410Z,16.89
2023-05-05T14:26:09.132Z,16.66
2023-05-05T14:28:37.329Z,16.43
2023-05-05T14:31:05.488Z,16.24
2023-05-05T14:33:33.587Z,16.02
2023-05-05T14:36:01.675Z,15.91
2023-05-05T14:38:29.801Z,15.76
2023-05-05T14:40:57.875Z,15.57
2023-05-05T14:43:25.964Z,15.49
2023-05-05T14:45:54.161Z,15.37
2023-05-05T14:48:22.573Z,15.28
2023-05-05T14:50:50.936Z,15.17
2023-05-05T14:53:19.455Z,15.07
2023-05-05T14:55:47.509Z,14.98
2023-05-05T14:58:15.792Z,14.92
2023-05-05T15:00:43.819Z,14.83
2023-05-05T15:03:11.851Z,14.78
2023-05-05T15:05:39.941Z,14.69
2023-05-05T15:08:08.037Z,14.51
2023-05-05T15:10:36.083Z,14.40
2023-05-05T15:13:04.211Z,14.36
2023-05-05T15:15:32.282Z,14.32
2023-05-05T15:18:00.428Z,14.30
2023-05-05T15:20:28.601Z,14.26
2023-05-05T15:22:57.045Z,14.20
2023-05-05T15:25:25.186Z,14.16
2023-05-05T15:27:53.367Z,14.13
2023-05-05T15:30:21.438Z,14.11
2023-05-05T15:32:49.546Z,14.03
2023-05-05T15:35:17.805Z,13.98
2023-05-05T15:37:46.026Z,13.98
2023-05-05T15:40:14.022Z,14.01
2023-05-05T15:42:42.224Z,14.00
2023-05-05T15:45:14.945Z,14.00
2023-05-05T15:47:43.026Z,14.01
2023-05-05T15:50:11.103Z,14.03
2023-05-05T15:52:39.178Z,14.06
2023-05-05T15:55:07.859Z,14.07
2023-05-05T15:57:36.782Z,14.04
2023-05-05T16:00:05.097Z,13.99
2023-05-05T16:02:35.805Z,13.94
2023-05-05T16:05:04.876Z,13.89
2023-05-05T16:07:32.976Z,13.81
2023-05-05T16:10:01.060Z,13.75
2023-05-05T16:12:29.180Z,13.69
2023-05-05T16:14:57.403Z,13.64
2023-05-05T16:17:25.572Z,13.55
2023-05-05T16:19:53.688Z,13.48
2023-05-05T16:22:21.699Z,13.38
2023-05-05T16:24:49.801Z,13.32
2023-05-05T16:27:17.937Z,13.27
2023-05-05T16:29:46.031Z,13.23
2023-05-05T16:32:14.110Z,13.17
2023-05-05T16:34:42.243Z,13.11
2023-05-05T16:37:10.374Z,13.06
2023-05-05T16:39:40.384Z,13.00
2023-05-05T16:42:08.623Z,12.94
2023-05-05T16:44:36.712Z,12.87
2023-05-05T16:47:04.886Z,12.84
2023-05-05T16:49:32.992Z,12.80
2023-05-05T16:52:01.091Z,12.73
2023-05-05T16:54:29.079Z,12.70
2023-05-05T16:56:57.062Z,12.69
2023-05-05T16:59:25.067Z,12.67
2023-05-05T17:01:53.187Z,12.65
2023-05-05T17:04:21.322Z,12.65
2023-05-05T17:06:49.681Z,12.64
2023-05-05T17:09:17.979Z,12.64
2023-05-05T17:11:46.102Z,12.65
2023-05-05T17:14:14.186Z,12.57
2023-05-05T17:16:42.519Z,12.47
2023-05-05T17:19:10.605Z,12.33
2023-05-05T17:21:38.699Z,12.16
2023-05-05T17:24:07.145Z,11.99
2023-05-05T17:26:35.267Z,11.82
2023-05-05T17:29:03.339Z,11.66
2023-05-05T17:31:31.468Z,11.49
2023-05-05T17:33:59.729Z,11.30
2023-05-05T17:36:27.803Z,11.13
2023-05-05T17:38:56.083Z,10.96
2023-05-05T17:41:25.695Z,10.81
2023-05-05T17:43:53.852Z,10.67
2023-05-05T17:46:21.959Z,10.57
2023-05-05T17:48:50.126Z,10.48
2023-05-05T17:51:18.206Z,10.36
2023-05-05T17:53:46.276Z,10.23
2023-05-05T17:56:14.341Z,10.13
2023-05-05T17:58:42.437Z,10.05
2023-05-05T18:01:19.480Z,10.01
2023-05-05T18:03:47.602Z,9.96
2023-05-05T18:06:15.871Z,9.89
2023-05-05T18:08:44.780Z,9.80
2023-05-05T18:11:12.895Z,9.69
2023-05-05T18:13:40.973Z,9.59
2023-05-05T18:16:09.015Z,9.45
2023-05-05T18:18:37.308Z,9.35
2023-05-05T18:21:05.364Z,9.25
2023-05-05T18:23:33.571Z,9.16
2023-05-05T18:26:01.710Z,9.07
2023-05-05T18:28:29.716Z,9.02
2023-05-05T18:30:57.815Z,8.97
2023-05-05T18:33:26.678Z,8.95
2023-05-05T18:35:54.839Z,8.95
2023-05-05T18:38:22.955Z,8.91
2023-05-05T18:40:51.068Z,8.84
2023-05-05T18:43:19.151Z,8.76
2023-05-05T18:45:47.250Z,8.70
2023-05-05T18:48:15.495Z,8.66
2023-05-05T18:50:43.574Z,8.61
2023-05-05T18:53:13.732Z,8.54
2023-05-05T18:55:43.470Z,8.50
2023-05-05T18:58:11.556Z,8.48
2023-05-05T19:00:39.586Z,8.45
2023-05-05T19:03:07.864Z,8.44
2023-05-05T19:05:36.161Z,8.42
2023-05-05T19:08:04.285Z,8.40
2023-05-05T19:10:32.424Z,8.40
2023-05-05T19:13:00.950Z,8.37
2023-05-05T19:15:29.395Z,8.35
2023-05-05T19:17:57.543Z,8.29
2023-05-05T19:20:25.695Z,8.24
2023-05-05T19:22:53.695Z,8.17
2023-05-05T19:25:21.874Z,8.09
2023-05-05T19:27:49.916Z,8.01
2023-05-05T19:30:18.027Z,7.94
2023-05-05T19:32:46.241Z,7.89
2023-05-05T19:35:14.411Z,7.86
2023-05-05T19:37:42.517Z,7.89
2023-05-05T19:40:11.169Z,7.90
2023-05-05T19:42:39.814Z,7.93
2023-05-05T19:45:08.122Z,7.96
2023-05-05T19:47:36.399Z,7.99
2023-05-05T19:50:04.748Z,8.01
2023-05-05T19:52:32.846Z,8.02
2023-05-05T19:55:01.158Z,8.03
2023-05-05T19:57:29.531Z,8.02
2023-05-05T19:59:57.638Z,8.00
2023-05-05T20:02:27.225Z,7.98
2023-05-05T20:04:55.468Z,7.97
2023-05-05T20:07:23.713Z,7.96
2023-05-05T20:09:51.771Z,7.96
2023-05-05T20:12:21.984Z,7.99
2023-05-05T20:14:50.206Z,8.01
2023-05-05T20:17:20.420Z,8.03
2023-05-05T20:19:48.517Z,8.08
2023-05-05T20:22:17.156Z,8.09
2023-05-05T20:24:45.163Z,8.08
2023-05-05T20:27:13.256Z,8.11
2023-05-05T20:29:41.393Z,8.08
2023-05-05T20:32:09.473Z,8.01
2023-05-05T20:34:38.931Z,7.95
2023-05-05T20:37:07.055Z,7.90
2023-05-05T20:39:35.231Z,7.84
2023-05-05T20:42:03.346Z,7.80
2023-05-05T20:44:31.505Z,7.76
2023-05-05T20:46:59.714Z,7.73
2023-05-05T20:49:27.950Z,7.70
2023-05-05T20:51:56.044Z,7.68
2023-05-05T20:54:24.193Z,7.67
2023-05-05T20:56:53.266Z,7.66
2023-05-05T20:59:21.278Z,7.65
2023-05-05T21:01:49.355Z,7.64
2023-05-05T21:04:17.523Z,7.66
2023-05-05T21:06:46.008Z,7.72
2023-05-05T21:09:14.125Z,7.82
2023-05-05T21:11:42.497Z,7.91
2023-05-05T21:14:11.064Z,8.00
2023-05-05T21:16:39.164Z,8.11
2023-05-05T21:19:07.268Z,8.20
2023-05-05T21:21:35.316Z,8.29
2023-05-05T21:24:04.908Z,8.34
2023-05-05T21:26:34.365Z,8.35
2023-05-05T21:29:02.419Z,8.36
2023-05-05T21:31:30.549Z,8.34
2023-05-05T21:33:58.641Z,8.32
2023-05-05T21:36:27.480Z,8.29
2023-05-05T21:38:58.372Z,8.24
2023-05-05T21:41:27.979Z,8.17
2023-05-05T21:43:56.177Z,8.12
2023-05-05T21:46:24.200Z,8.06
2023-05-05T21:48:52.226Z,8.04
2023-05-05T21:51:20.388Z,8.04
2023-05-05T21:53:48.447Z,8.06
2023-05-05T21:56:16.758Z,8.09
2023-05-05T21:58:44.928Z,8.14
2023-05-05T22:01:13.028Z,8.17
2023-05-05T22:03:43.654Z,8.17
2023-05-05T22:06:12.488Z,8.15
2023-05-05T22:08:40.591Z,8.12
2023-05-05T22:11:08.676Z,8.04
2023-05-05T22:13:37.693Z,7.94
2023-05-05T22:16:06.498Z,7.79
2023-05-05T22:18:35.246Z,7.66
2023-05-05T22:21:03.697Z,7.53
2023-05-05T22:23:32.111Z,7.41
2023-05-05T22:26:00.179Z,7.31
2023-05-05T22:28:28.337Z,7.25
2023-05-05T22:30:56.471Z,7.21
2023-05-05T22:33:24.746Z,7.19
2023-05-05T22:35:53.394Z,7.18
2023-05-05T22:38:21.521Z,7.15
2023-05-05T22:40:49.601Z,7.12
2023-05-05T22:43:17.735Z,7.10
2023-05-05T22:45:45.879Z,7.06
2023-05-05T22:48:13.913Z,6.97
2023-05-05T22:50:42.119Z,6.89
2023-05-05T22:53:10.240Z,6.79
2023-05-05T22:55:38.222Z,6.72
2023-05-05T22:58:06.545Z,6.66
2023-05-05T23:00:34.606Z,6.55
2023-05-05T23:03:02.570Z,6.48
2023-05-05T23:05:30.719Z,6.46
2023-05-05T23:08:01.298Z,6.48
2023-05-05T23:10:29.853Z,6.52
2023-05-05T23:12:57.901Z,6.56
2023-05-05T23:15:26.160Z,6.64
2023-05-05T23:17:54.361Z,6.73
2023-05-05T23:20:22.538Z,6.82
2023-05-05T23:22:50.765Z,6.85
2023-05-05T23:25:18.971Z,6.93
2023-05-05T23:27:48.045Z,7.02
2023-05-05T23:30:16.385Z,7.09
2023-05-05T23:32:45.132Z,7.08
2023-05-05T23:35:13.313Z,7.12
2023-05-05T23:37:41.634Z,7.17
2023-05-05T23:40:09.808Z,7.19
2023-05-05T23:42:37.913Z,7.19
2023-05-05T23:45:06.241Z,7.22
2023-05-05T23:47:34.393Z,7.28
2023-05-05T23:50:02.764Z,7.34
2023-05-05T23:52:30.810Z,7.41
2023-05-05T23:54:58.913Z,7.46
2023-05-05T23:57:26.963Z,7.47
2023-05-05T23:59:55.074Z,7.51
